createdAt,value
2019-05-02T00:00:37.469Z,13.00
2019-05-02T00:03:07.623Z,13.00
2019-05-02T00:05:37.923Z,13.00
2019-05-02T00:08:08.231Z,13.10
2019-05-02T00:10:38.883Z,13.20
2019-05-02T00:13:09.256Z,13.30
2019-05-02T00:15:40.838Z,13.30
2019-05-02T00:18:11.195Z,13.30
2019-05-02T00:20:41.204Z,13.30
2019-05-02T00:23:11.470Z,13.30
2019-05-02T00:25:41.829Z,13.30
2019-05-02T00:28:13.855Z,13.10
2019-05-02T00:30:43.880Z,13.10
2019-05-02T00:33:14.012Z,13.20
2019-05-02T00:35:46.203Z,13.20
2019-05-02T00:38:15.836Z,13.20
2019-05-02T00:40:46.512Z,13.10
2019-05-02T00:43:16.803Z,13.00
2019-05-02T00:45:48.004Z,12.90
2019-05-02T01:08:40.652Z,12.60
2019-05-02T01:11:10.878Z,12.70
2019-05-02T01:13:42.077Z,12.40
2019-05-02T01:16:15.165Z,12.20
2019-05-02T01:18:44.983Z,12.30
2019-05-02T01:21:15.004Z,12.40
2019-05-02T01:23:44.993Z,12.50
2019-05-02T01:26:15.145Z,12.60
2019-05-02T01:28:55.868Z,12.40
2019-05-02T01:31:27.694Z,12.00
2019-05-02T01:34:18.004Z,12.10
2019-05-02T01:37:00.004Z,12.10
2019-05-02T01:39:30.100Z,12.20
2019-05-02T01:42:04.009Z,12.10
2019-05-02T01:44:36.244Z,12.10
2019-05-02T01:47:03.875Z,12.00
2019-05-02T01:49:33.902Z,12.10
2019-05-02T01:52:03.998Z,12.20
2019-05-02T01:54:34.075Z,12.20
2019-05-02T01:57:08.715Z,12.30
2019-05-02T01:59:35.815Z,12.20
2019-05-02T02:02:06.196Z,12.00
2019-05-02T02:04:36.404Z,12.10
2019-05-02T02:07:06.547Z,12.20
2019-05-02T02:09:38.848Z,12.10
2019-05-02T02:12:09.757Z,12.10
2019-05-02T02:14:40.343Z,12.00
2019-05-02T02:17:15.325Z,11.90
2019-05-02T02:19:46.421Z,11.90
2019-05-02T02:22:18.175Z,11.80
2019-05-02T02:24:49.944Z,11.60
2019-05-02T02:27:24.507Z,11.70
2019-05-02T02:29:51.703Z,11.80
2019-05-02T02:32:27.142Z,11.80
2019-05-02T02:34:53.346Z,11.70
2019-05-02T02:37:23.300Z,11.70
2019-05-02T02:39:54.284Z,11.70
2019-05-02T02:42:31.458Z,11.50
2019-05-02T02:45:02.483Z,11.70
2019-05-02T02:47:32.560Z,11.70
2019-05-02T02:50:05.114Z,11.80
2019-05-02T02:52:37.990Z,11.80
2019-05-02T02:55:07.164Z,11.70
2019-05-02T02:57:37.139Z,11.40
2019-05-02T03:00:10.960Z,11.50
2019-05-02T03:02:48.061Z,11.60
2019-05-02T03:05:18.968Z,11.50
2019-05-02T03:07:43.572Z,11.50
2019-05-02T03:10:13.680Z,11.50
2019-05-02T03:12:45.401Z,11.60
2019-05-02T03:15:28.020Z,11.70
2019-05-02T03:17:59.980Z,11.70
2019-05-02T03:20:26.137Z,11.20
2019-05-02T03:22:56.209Z,11.00
2019-05-02T03:25:49.169Z,11.20
2019-05-02T03:27:58.212Z,11.30
2019-05-02T03:30:35.508Z,11.40
2019-05-02T03:33:09.806Z,11.50
2019-05-02T03:35:43.089Z,11.40
2019-05-02T03:38:04.463Z,11.30
2019-05-02T03:40:39.292Z,11.30
2019-05-02T03:43:06.368Z,11.30
2019-05-02T03:45:40.258Z,11.40
2019-05-02T03:48:09.745Z,11.40
2019-05-02T03:50:39.953Z,11.30
2019-05-02T03:53:10.529Z,11.20
2019-05-02T03:55:40.637Z,11.20
2019-05-02T03:58:14.285Z,11.20
2019-05-02T04:00:42.380Z,11.20
2019-05-02T04:03:12.450Z,11.10
2019-05-02T04:05:42.585Z,11.10
2019-05-02T04:08:19.940Z,11.20
2019-05-02T04:10:52.893Z,11.10
2019-05-02T04:13:18.908Z,11.00
2019-05-02T04:15:49.078Z,11.00
2019-05-02T04:18:20.480Z,11.10
2019-05-02T04:20:51.948Z,11.10
2019-05-02T04:23:27.631Z,11.20
2019-05-02T04:25:55.828Z,11.30
2019-05-02T04:28:25.936Z,11.20
2019-05-02T04:30:56.100Z,11.00
2019-05-02T04:33:29.241Z,11.10
2019-05-02T04:35:59.578Z,11.20
2019-05-02T04:38:39.150Z,11.30
2019-05-02T04:41:01.680Z,11.30
2019-05-02T04:43:31.865Z,11.20
2019-05-02T04:46:01.959Z,11.00
2019-05-02T04:48:34.815Z,11.20
2019-05-02T04:51:09.888Z,11.40
2019-05-02T04:53:40.953Z,11.40
2019-05-02T04:56:10.546Z,11.40
2019-05-02T04:58:40.582Z,11.30
2019-05-02T05:01:10.719Z,11.40
2019-05-02T05:03:42.372Z,11.50
2019-05-02T05:06:12.613Z,11.70
2019-05-02T05:08:42.603Z,11.70
2019-05-02T05:11:13.914Z,11.90
2019-05-02T05:13:44.364Z,12.00
2019-05-02T05:16:15.743Z,12.00
2019-05-02T05:18:49.402Z,12.00
2019-05-02T05:21:18.001Z,11.90
2019-05-02T05:23:59.490Z,12.00
2019-05-02T05:26:28.825Z,12.10
2019-05-02T05:28:58.875Z,12.20
2019-05-02T05:31:29.327Z,12.20
2019-05-02T05:34:00.407Z,12.20
2019-05-02T05:36:33.946Z,12.30
2019-05-02T05:39:07.603Z,12.50
2019-05-02T05:41:34.667Z,12.70
2019-05-02T05:44:04.850Z,12.80
2019-05-02T05:46:40.985Z,12.90
2019-05-02T05:49:10.584Z,13.00
2019-05-02T05:51:38.195Z,13.10
2019-05-02T05:54:08.321Z,13.20
2019-05-02T05:56:42.996Z,13.30
2019-05-02T05:59:10.088Z,13.40
2019-05-02T06:01:40.092Z,13.50
2019-05-02T06:04:13.786Z,13.50
2019-05-02T06:06:42.015Z,13.60
2019-05-02T06:09:13.847Z,13.70
2019-05-02T06:11:43.670Z,13.70
2019-05-02T06:14:13.675Z,13.80
2019-05-02T06:16:46.401Z,13.80
2019-05-02T06:19:17.826Z,13.90
2019-05-02T06:21:49.007Z,14.00
2019-05-02T06:24:19.037Z,14.00
2019-05-02T06:26:49.979Z,14.10
2019-05-02T06:29:21.085Z,14.10
2019-05-02T06:31:52.211Z,14.10
2019-05-02T06:34:22.316Z,14.30
2019-05-02T06:36:52.354Z,14.30
2019-05-02T06:39:22.305Z,14.40
2019-05-02T06:41:57.165Z,14.50
2019-05-02T06:44:25.400Z,14.50
2019-05-02T06:46:59.339Z,14.50
2019-05-02T06:49:27.424Z,14.50
2019-05-02T06:51:57.764Z,14.60
2019-05-02T06:54:28.732Z,14.70
2019-05-02T06:56:58.813Z,14.80
2019-05-02T06:59:29.036Z,14.80
2019-05-02T07:02:02.415Z,14.90
2019-05-02T07:04:33.090Z,14.90
2019-05-02T07:07:03.454Z,15.00
2019-05-02T07:09:40.929Z,15.10
2019-05-02T07:12:09.878Z,15.20
2019-05-02T07:14:39.236Z,15.30
2019-05-02T07:17:13.824Z,15.40
2019-05-02T07:19:46.631Z,15.50
2019-05-02T07:22:16.828Z,15.60
2019-05-02T07:24:46.913Z,15.60
2019-05-02T07:27:17.092Z,15.60
2019-05-02T07:29:57.664Z,15.70
2019-05-02T07:32:29.380Z,15.80
2019-05-02T07:35:00.970Z,15.90
2019-05-02T07:40:17.013Z,16.00
2019-05-02T07:42:45.554Z,16.10
2019-05-02T07:45:15.866Z,16.20
2019-05-02T07:47:45.959Z,16.20
2019-05-02T07:50:16.051Z,16.30
2019-05-02T07:52:46.172Z,16.30
2019-05-02T07:55:16.255Z,16.40
2019-05-02T07:57:46.360Z,16.40
2019-05-02T08:00:17.915Z,16.40
2019-05-02T08:02:48.101Z,16.50
2019-05-02T08:05:21.549Z,16.60
2019-05-02T08:07:53.344Z,16.60
2019-05-02T08:10:23.973Z,16.70
2019-05-02T08:12:53.903Z,16.70
2019-05-02T08:15:24.980Z,16.80
2019-05-02T08:17:55.226Z,16.80
2019-05-02T08:20:25.668Z,16.80
2019-05-02T08:22:55.540Z,16.80
2019-05-02T08:25:25.625Z,16.80
2019-05-02T08:28:04.582Z,16.90
2019-05-02T08:30:40.029Z,16.90
2019-05-02T08:33:09.798Z,17.10
2019-05-02T08:35:39.927Z,17.10
2019-05-02T08:38:12.514Z,17.20
2019-05-02T08:40:42.230Z,17.30
2019-05-02T08:43:13.566Z,17.30
2019-05-02T08:45:43.642Z,17.30
2019-05-02T08:48:13.828Z,17.40
2019-05-02T08:50:43.844Z,17.40
2019-05-02T08:53:14.395Z,17.50
2019-05-02T08:55:46.741Z,17.50
2019-05-02T08:58:16.785Z,17.40
2019-05-02T09:00:47.301Z,17.50
2019-05-02T09:03:17.653Z,17.50
2019-05-02T09:05:47.717Z,17.60
2019-05-02T09:08:17.829Z,17.60
2019-05-02T09:10:47.871Z,17.70
2019-05-02T09:13:26.415Z,17.70
2019-05-02T09:15:51.582Z,17.80
2019-05-02T09:18:25.398Z,17.80
2019-05-02T09:20:56.581Z,17.90
2019-05-02T09:23:27.429Z,18.00
2019-05-02T09:25:57.436Z,18.10
2019-05-02T09:28:27.555Z,18.10
2019-05-02T09:31:02.189Z,18.10
2019-05-02T09:33:29.199Z,18.30
2019-05-02T09:35:59.142Z,18.20
2019-05-02T09:38:29.203Z,18.50
2019-05-02T09:40:59.147Z,18.50
2019-05-02T09:43:33.516Z,18.50
2019-05-02T09:46:02.583Z,18.50
2019-05-02T09:48:33.559Z,18.60
2019-05-02T09:51:12.898Z,18.60
2019-05-02T09:53:36.471Z,18.70
2019-05-02T09:56:06.589Z,18.80
2019-05-02T09:58:36.671Z,18.80
2019-05-02T10:01:08.836Z,18.70
2019-05-02T10:03:38.788Z,18.70
2019-05-02T10:06:16.424Z,18.80
2019-05-02T10:08:43.546Z,18.90
2019-05-02T10:11:12.309Z,18.90
2019-05-02T10:13:42.488Z,19.00
2019-05-02T10:16:12.720Z,19.00
2019-05-02T10:18:43.172Z,19.10
2019-05-02T10:21:17.050Z,19.10
2019-05-02T10:23:45.124Z,19.30
2019-05-02T10:26:20.023Z,19.30
2019-05-02T10:28:50.572Z,19.30
2019-05-02T10:31:18.571Z,19.30
2019-05-02T10:33:48.565Z,19.40
2019-05-02T10:36:19.750Z,19.50
2019-05-02T10:38:54.681Z,19.60
2019-05-02T10:41:22.487Z,19.70
2019-05-02T10:43:55.980Z,19.70
2019-05-02T10:46:27.893Z,19.70
2019-05-02T10:48:59.043Z,19.90
2019-05-02T10:51:34.936Z,19.90
2019-05-02T10:54:06.155Z,19.90
2019-05-02T10:56:36.414Z,20.00
2019-05-02T10:59:06.535Z,19.90
2019-05-02T11:01:38.290Z,20.00
2019-05-02T11:04:09.983Z,20.10
2019-05-02T11:06:42.604Z,20.20
2019-05-02T11:09:12.140Z,20.20
2019-05-02T11:11:42.571Z,20.30
2019-05-02T11:14:26.024Z,20.40
2019-05-02T11:17:01.753Z,20.50
2019-05-02T11:19:44.892Z,20.60
2019-05-02T11:22:14.999Z,20.60
2019-05-02T11:24:45.072Z,20.70
2019-05-02T11:27:15.123Z,20.90
2019-05-02T11:29:45.073Z,21.00
2019-05-02T11:32:15.046Z,21.20
2019-05-02T11:34:45.175Z,21.20
2019-05-02T11:37:15.287Z,21.30
2019-05-02T11:39:51.317Z,21.40
2019-05-02T11:42:17.601Z,21.50
2019-05-02T11:44:48.512Z,21.70
2019-05-02T11:47:24.813Z,21.70
2019-05-02T11:49:53.917Z,21.80
2019-05-02T11:52:27.502Z,22.00
2019-05-02T11:54:54.552Z,22.20
2019-05-02T11:57:28.536Z,22.20
2019-05-02T11:59:59.499Z,22.20
2019-05-02T12:02:38.371Z,22.20
2019-05-02T12:05:13.104Z,22.30
2019-05-02T12:07:43.189Z,22.10
2019-05-02T12:10:13.415Z,21.50
2019-05-02T12:12:43.532Z,21.60
2019-05-02T12:15:13.715Z,21.70
2019-05-02T12:17:43.767Z,21.90
2019-05-02T12:20:13.848Z,22.20
2019-05-02T12:22:44.077Z,22.30
2019-05-02T12:25:15.072Z,22.40
2019-05-02T12:27:45.011Z,22.40
2019-05-02T12:30:15.195Z,22.40
2019-05-02T12:32:45.383Z,22.60
2019-05-02T12:35:15.527Z,22.70
2019-05-02T12:37:47.089Z,23.10
2019-05-02T12:40:17.531Z,23.40
2019-05-02T12:42:47.835Z,23.70
2019-05-02T12:45:17.940Z,24.00
2019-05-02T12:47:48.055Z,23.30
2019-05-02T12:50:18.159Z,23.50
2019-05-02T12:52:48.211Z,23.60
2019-05-02T12:55:18.291Z,22.90
2019-05-02T12:57:48.339Z,22.90
2019-05-02T13:00:19.212Z,22.90
2019-05-02T13:02:52.538Z,23.10
2019-05-02T13:05:22.676Z,22.70
2019-05-02T13:07:55.308Z,22.90
2019-05-02T13:10:28.961Z,22.70
2019-05-02T13:12:59.035Z,22.70
2019-05-02T13:15:29.318Z,23.00
2019-05-02T13:17:59.395Z,23.20
2019-05-02T13:20:34.743Z,23.50
2019-05-02T13:23:22.667Z,23.20
2019-05-02T13:25:52.775Z,23.20
2019-05-02T13:28:25.623Z,23.00
2019-05-02T13:31:02.327Z,23.10
2019-05-02T13:33:47.194Z,22.80
2019-05-02T13:36:39.007Z,22.40
2019-05-02T13:39:13.227Z,22.60
2019-05-02T13:41:43.351Z,22.50
2019-05-02T13:44:15.384Z,22.40
2019-05-02T13:46:46.240Z,22.50
2019-05-02T13:49:16.306Z,22.40
2019-05-02T13:51:46.452Z,22.70
2019-05-02T13:54:16.602Z,23.30
2019-05-02T13:56:53.108Z,23.40
2019-05-02T13:59:23.200Z,23.70
2019-05-02T14:01:54.086Z,23.70
2019-05-02T14:04:24.187Z,23.20
2019-05-02T14:06:54.264Z,23.20
2019-05-02T14:09:35.116Z,23.10
2019-05-02T14:12:07.035Z,23.70
2019-05-02T14:14:37.106Z,24.60
2019-05-02T14:17:07.204Z,25.20
2019-05-02T14:19:38.852Z,25.60
2019-05-02T14:22:08.959Z,25.20
2019-05-02T14:24:38.975Z,24.30
2019-05-02T14:27:13.018Z,23.50
2019-05-02T14:29:42.399Z,22.90
2019-05-02T14:32:21.359Z,23.00
2019-05-02T14:34:48.221Z,23.70
2019-05-02T14:37:18.332Z,24.10
2019-05-02T14:39:49.975Z,24.60
2019-05-02T14:42:22.067Z,23.80
2019-05-02T14:45:05.696Z,23.30
2019-05-02T14:47:23.552Z,23.70
2019-05-02T14:49:56.692Z,24.00
2019-05-02T14:52:25.443Z,24.10
2019-05-02T14:54:55.791Z,23.80
2019-05-02T14:57:27.284Z,24.10
2019-05-02T14:59:59.513Z,24.70
2019-05-02T15:02:44.949Z,26.20
2019-05-02T15:05:19.159Z,27.60
2019-05-02T15:07:47.686Z,28.00
2019-05-02T15:10:17.786Z,27.10
2019-05-02T15:12:53.513Z,25.40
2019-05-02T15:15:19.508Z,25.50
2019-05-02T15:17:49.515Z,24.80
2019-05-02T15:20:19.655Z,25.00
2019-05-02T15:22:49.646Z,24.80
2019-05-02T15:25:21.666Z,25.00
2019-05-02T15:27:58.517Z,24.50
2019-05-02T15:30:24.121Z,25.20
2019-05-02T15:32:58.568Z,24.60
2019-05-02T15:35:31.799Z,25.50
2019-05-02T15:38:06.535Z,25.80
2019-05-02T15:40:43.479Z,26.00
2019-05-02T15:43:09.705Z,26.10
2019-05-02T15:45:42.006Z,26.10
2019-05-02T15:48:15.472Z,25.50
2019-05-02T15:50:51.587Z,25.40
2019-05-02T15:53:14.794Z,24.90
2019-05-02T15:55:44.799Z,24.70
2019-05-02T15:58:26.082Z,23.90
2019-05-02T16:00:56.509Z,23.00
2019-05-02T16:03:27.723Z,23.80
2019-05-02T16:05:57.898Z,25.00
2019-05-02T16:08:29.540Z,24.90
2019-05-02T16:10:59.637Z,24.30
2019-05-02T16:13:31.711Z,23.80
2019-05-02T16:16:04.330Z,24.30
2019-05-02T16:18:36.074Z,24.40
2019-05-02T16:21:07.911Z,23.80
2019-05-02T16:23:38.169Z,24.20
2019-05-02T16:26:08.948Z,23.70
2019-05-02T16:28:44.123Z,23.60
2019-05-02T16:31:12.589Z,23.80
2019-05-02T16:33:42.696Z,23.80
2019-05-02T16:36:13.788Z,23.50
2019-05-02T16:38:43.963Z,23.10
2019-05-02T16:41:14.075Z,23.00
2019-05-02T16:43:44.204Z,22.70
2019-05-02T16:46:15.403Z,22.50
2019-05-02T16:48:44.747Z,22.30
2019-05-02T16:51:29.907Z,22.30
2019-05-02T16:53:46.375Z,22.30
2019-05-02T16:56:16.367Z,22.80
2019-05-02T16:58:47.245Z,23.50
2019-05-02T17:01:26.553Z,24.10
2019-05-02T17:03:49.140Z,25.30
2019-05-02T17:06:22.372Z,25.80
2019-05-02T17:09:08.404Z,25.90
2019-05-02T17:11:45.908Z,25.30
2019-05-02T17:14:15.898Z,24.60
2019-05-02T17:16:47.161Z,23.90
2019-05-02T17:19:19.095Z,23.50
2019-05-02T17:21:53.813Z,22.30
2019-05-02T17:24:24.603Z,21.80
2019-05-02T17:26:52.351Z,21.30
2019-05-02T17:29:22.800Z,21.10
2019-05-02T17:31:55.519Z,21.00
2019-05-02T17:34:29.947Z,21.20
2019-05-02T17:37:11.150Z,21.60
2019-05-02T17:39:42.692Z,21.50
2019-05-02T17:42:25.787Z,21.40
2019-05-02T17:44:59.253Z,21.10
2019-05-02T17:47:26.433Z,20.80
2019-05-02T17:49:58.947Z,20.30
2019-05-02T17:52:33.362Z,19.80
2019-05-02T17:55:04.568Z,19.70
2019-05-02T17:57:34.921Z,19.60
2019-05-02T18:00:13.071Z,19.40
2019-05-02T18:02:42.385Z,19.40
2019-05-02T18:05:12.444Z,19.40
2019-05-02T18:07:42.507Z,19.30
2019-05-02T18:10:19.279Z,19.30
2019-05-02T18:12:47.738Z,19.10
2019-05-02T18:15:16.072Z,18.90
2019-05-02T18:17:46.075Z,18.90
2019-05-02T18:20:17.087Z,18.90
2019-05-02T18:22:48.958Z,18.70
2019-05-02T18:25:23.622Z,18.60
2019-05-02T18:27:51.795Z,18.50
2019-05-02T18:30:25.548Z,18.50
2019-05-02T18:32:57.819Z,18.60
2019-05-02T18:35:25.116Z,18.50
2019-05-02T18:37:55.266Z,18.50
2019-05-02T18:40:29.361Z,18.30
2019-05-02T18:43:02.147Z,18.40
2019-05-02T18:45:29.276Z,18.20
2019-05-02T18:48:02.468Z,18.20
2019-05-02T18:50:37.030Z,18.10
2019-05-02T18:53:08.169Z,18.00
2019-05-02T18:55:38.577Z,17.90
2019-05-02T18:58:09.485Z,17.90
2019-05-02T19:00:41.938Z,17.90
2019-05-02T19:03:13.237Z,17.80
2019-05-02T19:05:43.551Z,17.80
2019-05-02T19:08:13.759Z,17.70
2019-05-02T19:11:01.373Z,17.70
2019-05-02T19:13:15.492Z,17.70
2019-05-02T19:15:48.882Z,17.60
2019-05-02T19:18:18.305Z,17.60
2019-05-02T19:20:57.542Z,17.60
2019-05-02T19:23:26.709Z,17.70
2019-05-02T19:25:56.775Z,17.80
2019-05-02T19:28:34.660Z,17.80
2019-05-02T19:31:06.754Z,17.80
2019-05-02T19:33:37.581Z,17.70
2019-05-02T19:36:07.219Z,17.70
2019-05-02T19:38:37.338Z,17.60
2019-05-02T19:41:09.354Z,17.60
2019-05-02T19:43:40.506Z,17.70
2019-05-02T19:46:12.147Z,17.40
2019-05-02T19:48:43.016Z,17.30
2019-05-02T19:51:18.434Z,17.30
2019-05-02T19:53:44.817Z,17.20
2019-05-02T19:56:14.916Z,17.20
2019-05-02T19:58:46.798Z,17.20
2019-05-02T20:01:17.523Z,17.10
2019-05-02T20:03:48.442Z,17.10
2019-05-02T20:06:18.543Z,17.10
2019-05-02T20:08:48.651Z,17.10
2019-05-02T20:11:18.743Z,17.00
2019-05-02T20:13:48.899Z,17.10
2019-05-02T20:16:26.013Z,17.00
2019-05-02T20:18:56.103Z,17.00
2019-05-02T20:21:32.545Z,17.00
2019-05-02T20:24:04.311Z,16.90
2019-05-02T20:26:34.502Z,17.00
2019-05-02T20:29:04.613Z,16.90
2019-05-02T20:31:34.630Z,17.00
2019-05-02T20:34:05.122Z,17.00
2019-05-02T20:36:35.265Z,17.00
2019-05-02T20:39:07.969Z,17.00
2019-05-02T20:41:38.290Z,17.00
2019-05-02T20:44:08.331Z,17.00
2019-05-02T20:46:38.372Z,17.00
2019-05-02T20:49:09.486Z,17.00
2019-05-02T20:51:39.567Z,16.90
2019-05-02T20:54:12.380Z,16.90
2019-05-02T20:56:42.757Z,16.90
2019-05-02T20:59:12.941Z,16.90
2019-05-02T21:01:43.060Z,16.90
2019-05-02T21:04:13.128Z,16.70
2019-05-02T21:06:56.647Z,16.70
2019-05-02T21:09:33.909Z,16.80
2019-05-02T21:12:05.915Z,16.70
2019-05-02T21:14:36.174Z,16.70
2019-05-02T21:17:06.378Z,16.70
2019-05-02T21:19:36.439Z,16.60
2019-05-02T21:22:09.550Z,16.60
2019-05-02T21:24:39.723Z,16.60
2019-05-02T21:27:09.842Z,16.60
2019-05-02T21:29:40.002Z,16.60
2019-05-02T21:32:11.933Z,16.60
2019-05-02T21:34:42.463Z,16.50
2019-05-02T21:37:12.823Z,16.50
2019-05-02T21:39:42.895Z,16.40
2019-05-02T21:42:12.994Z,16.40
2019-05-02T21:44:42.996Z,16.30
2019-05-02T21:47:13.130Z,16.30
2019-05-02T21:49:52.372Z,16.40
2019-05-02T21:52:39.739Z,16.40
2019-05-02T21:55:14.190Z,16.40
2019-05-02T21:57:44.195Z,16.30
2019-05-02T22:00:22.240Z,16.30
2019-05-02T22:02:53.832Z,16.30
2019-05-02T22:05:23.931Z,16.30
2019-05-02T22:07:54.003Z,16.10
2019-05-02T22:10:24.111Z,16.10
2019-05-02T22:12:54.119Z,16.00
2019-05-02T22:15:24.247Z,15.90
2019-05-02T22:17:54.184Z,15.80
2019-05-02T22:20:24.211Z,15.80
2019-05-02T22:22:54.307Z,15.80
2019-05-02T22:25:24.455Z,15.80
2019-05-02T22:27:54.487Z,15.90
2019-05-02T22:30:24.556Z,15.90
2019-05-02T22:32:54.670Z,15.90
2019-05-02T22:35:24.667Z,15.80
2019-05-02T22:38:02.395Z,15.70
2019-05-02T22:40:32.454Z,15.70
2019-05-02T22:43:04.612Z,15.70
2019-05-02T22:45:34.144Z,15.60
2019-05-02T22:48:04.523Z,15.60
2019-05-02T22:50:34.541Z,15.60
2019-05-02T22:53:04.951Z,15.60
2019-05-02T22:55:35.036Z,15.50
2019-05-02T22:58:05.150Z,15.60
2019-05-02T23:00:35.223Z,15.60
2019-05-02T23:03:05.408Z,15.50
2019-05-02T23:05:35.625Z,15.60
2019-05-02T23:08:05.902Z,15.60
2019-05-02T23:10:36.154Z,15.60
2019-05-02T23:13:06.437Z,15.50
2019-05-02T23:15:36.566Z,15.60
2019-05-02T23:18:06.651Z,15.60
2019-05-02T23:20:36.846Z,15.70
2019-05-02T23:23:06.963Z,15.60
2019-05-02T23:25:39.136Z,15.60
2019-05-02T23:28:13.721Z,15.60
2019-05-02T23:30:43.767Z,15.60
2019-05-02T23:33:13.884Z,15.60
2019-05-02T23:35:44.071Z,15.70
2019-05-02T23:38:14.304Z,15.60
2019-05-02T23:40:44.463Z,15.50
2019-05-02T23:43:14.583Z,15.50
2019-05-02T23:45:44.588Z,15.50
2019-05-02T23:48:14.657Z,15.50
2019-05-02T23:50:44.691Z,15.50
2019-05-02T23:53:14.743Z,15.50
2019-05-02T23:55:44.780Z,15.50
2019-05-02T23:58:14.779Z,15.50
